sensor_id;sensor_type;location;lat;lon;timestamp;pressure;altitude;pressure_sealevel;temperature;humidity
63343;BME280;49465;57.664;39.686;2023-07-29T00:00:56;99392.69;;;22.64;55.65
63343;BME280;49465;57.664;39.686;2023-07-29T00:03:30;99398.50;;;22.74;55.60
63343;BME280;49465;57.664;39.686;2023-07-29T00:06:04;99386.94;;;22.67;55.54
63343;BME280;49465;57.664;39.686;2023-07-29T00:08:41;99385.13;;;22.74;55.26
63343;BME280;49465;57.664;39.686;2023-07-29T00:11:10;99393.09;;;22.61;56.12
63343;BME280;49465;57.664;39.686;2023-07-29T00:13:50;99396.03;;;22.73;54.85
63343;BME280;49465;57.664;39.686;2023-07-29T00:16:23;99395.72;;;22.54;55.84
63343;BME280;49465;57.664;39.686;2023-07-29T00:18:55;99399.81;;;22.50;56.25
63343;BME280;49465;57.664;39.686;2023-07-29T00:21:44;99400.03;;;22.48;55.92
63343;BME280;49465;57.664;39.686;2023-07-29T00:24:14;99420.16;;;22.44;56.00
63343;BME280;49465;57.664;39.686;2023-07-29T00:26:51;99426.69;;;22.42;56.75
63343;BME280;49465;57.664;39.686;2023-07-29T00:29:26;99415.63;;;22.45;55.45
63343;BME280;49465;57.664;39.686;2023-07-29T00:32:04;99423.34;;;22.33;55.92
63343;BME280;49465;57.664;39.686;2023-07-29T00:34:38;99423.44;;;22.18;55.94
63343;BME280;49465;57.664;39.686;2023-07-29T00:37:07;99416.84;;;22.14;56.32
63343;BME280;49465;57.664;39.686;2023-07-29T00:39:44;99431.38;;;22.33;56.39
63343;BME280;49465;57.664;39.686;2023-07-29T00:42:18;99434.91;;;22.19;56.42
63343;BME280;49465;57.664;39.686;2023-07-29T00:44:50;99428.88;;;22.03;56.33
63343;BME280;49465;57.664;39.686;2023-07-29T00:47:26;99429.69;;;22.25;55.72
63343;BME280;49465;57.664;39.686;2023-07-29T00:49:55;99441.66;;;22.15;56.03
63343;BME280;49465;57.664;39.686;2023-07-29T00:52:30;99419.75;;;22.19;55.70
63343;BME280;49465;57.664;39.686;2023-07-29T00:55:02;99423.31;;;22.05;55.99
63343;BME280;49465;57.664;39.686;2023-07-29T00:57:34;99421.69;;;22.04;56.25
63343;BME280;49465;57.664;39.686;2023-07-29T01:00:07;99413.44;;;21.99;56.45
63343;BME280;49465;57.664;39.686;2023-07-29T01:02:40;99413.50;;;22.05;56.52
63343;BME280;49465;57.664;39.686;2023-07-29T01:05:15;99410.19;;;22.03;55.79
63343;BME280;49465;57.664;39.686;2023-07-29T01:07:53;99411.50;;;21.86;56.59
63343;BME280;49465;57.664;39.686;2023-07-29T01:10:50;99426.28;;;22.17;55.61
63343;BME280;49465;57.664;39.686;2023-07-29T01:13:46;99430.22;;;22.21;54.45
63343;BME280;49465;57.664;39.686;2023-07-29T01:16:24;99428.16;;;21.88;55.79
63343;BME280;49465;57.664;39.686;2023-07-29T01:18:56;99435.63;;;21.78;56.19
63343;BME280;49465;57.664;39.686;2023-07-29T01:21:32;99437.31;;;21.57;56.90
63343;BME280;49465;57.664;39.686;2023-07-29T01:24:06;99432.88;;;21.64;56.70
63343;BME280;49465;57.664;39.686;2023-07-29T01:26:36;99420.53;;;21.63;56.13
63343;BME280;49465;57.664;39.686;2023-07-29T01:29:10;99427.78;;;21.69;56.06
63343;BME280;49465;57.664;39.686;2023-07-29T01:31:43;99428.41;;;21.71;56.03
63343;BME280;49465;57.664;39.686;2023-07-29T01:37:22;99435.53;;;21.64;56.06
63343;BME280;49465;57.664;39.686;2023-07-29T01:39:56;99435.09;;;21.61;55.95
63343;BME280;49465;57.664;39.686;2023-07-29T01:42:26;99449.00;;;21.56;56.23
63343;BME280;49465;57.664;39.686;2023-07-29T01:44:57;99450.59;;;21.50;56.74
63343;BME280;49465;57.664;39.686;2023-07-29T01:47:29;99449.97;;;21.48;56.38
63343;BME280;49465;57.664;39.686;2023-07-29T01:50:00;99440.28;;;21.47;56.34
63343;BME280;49465;57.664;39.686;2023-07-29T01:52:34;99442.00;;;21.55;56.16
63343;BME280;49465;57.664;39.686;2023-07-29T01:55:09;99443.16;;;21.46;56.63
63343;BME280;49465;57.664;39.686;2023-07-29T01:57:40;99443.78;;;21.48;56.52
63343;BME280;49465;57.664;39.686;2023-07-29T02:00:13;99421.00;;;21.45;56.12
63343;BME280;49465;57.664;39.686;2023-07-29T02:02:45;99416.75;;;21.51;56.08
63343;BME280;49465;57.664;39.686;2023-07-29T02:05:19;99424.09;;;21.49;56.25
63343;BME280;49465;57.664;39.686;2023-07-29T02:07:49;99422.94;;;21.37;56.53
63343;BME280;49465;57.664;39.686;2023-07-29T02:10:21;99430.72;;;21.38;56.62
63343;BME280;49465;57.664;39.686;2023-07-29T02:12:57;99428.06;;;21.38;56.70
63343;BME280;49465;57.664;39.686;2023-07-29T02:15:28;99434.41;;;21.37;56.82
63343;BME280;49465;57.664;39.686;2023-07-29T02:18:00;99437.63;;;21.32;56.54
63343;BME280;49465;57.664;39.686;2023-07-29T02:20:30;99439.59;;;21.24;56.52
63343;BME280;49465;57.664;39.686;2023-07-29T02:23:04;99448.13;;;21.34;56.35
63343;BME280;49465;57.664;39.686;2023-07-29T02:25:38;99454.31;;;21.35;56.36
63343;BME280;49465;57.664;39.686;2023-07-29T02:28:10;99455.75;;;21.37;56.38
63343;BME280;49465;57.664;39.686;2023-07-29T02:30:45;99460.00;;;21.31;56.88
63343;BME280;49465;57.664;39.686;2023-07-29T02:33:17;99449.69;;;21.28;56.76
63343;BME280;49465;57.664;39.686;2023-07-29T02:35:48;99442.72;;;21.27;56.64
63343;BME280;49465;57.664;39.686;2023-07-29T02:38:22;99442.59;;;21.36;56.65
63343;BME280;49465;57.664;39.686;2023-07-29T02:41:00;99447.47;;;21.47;55.92
63343;BME280;49465;57.664;39.686;2023-07-29T02:43:29;99453.25;;;21.14;56.67
63343;BME280;49465;57.664;39.686;2023-07-29T02:46:06;99451.66;;;21.20;56.41
63343;BME280;49465;57.664;39.686;2023-07-29T02:48:35;99451.28;;;21.23;56.78
63343;BME280;49465;57.664;39.686;2023-07-29T02:51:12;99459.81;;;21.33;56.16
63343;BME280;49465;57.664;39.686;2023-07-29T02:53:43;99447.78;;;21.22;56.59
63343;BME280;49465;57.664;39.686;2023-07-29T02:56:15;99449.81;;;21.20;56.78
63343;BME280;49465;57.664;39.686;2023-07-29T02:58:52;99467.47;;;21.21;56.50
63343;BME280;49465;57.664;39.686;2023-07-29T03:01:27;99467.69;;;21.05;57.01
63343;BME280;49465;57.664;39.686;2023-07-29T03:04:08;99467.84;;;21.18;56.62
63343;BME280;49465;57.664;39.686;2023-07-29T03:06:42;99467.69;;;21.05;56.84
63343;BME280;49465;57.664;39.686;2023-07-29T03:09:14;99468.06;;;21.02;57.02
63343;BME280;49465;57.664;39.686;2023-07-29T03:11:48;99467.38;;;21.14;56.67
63343;BME280;49465;57.664;39.686;2023-07-29T03:14:20;99455.56;;;21.02;57.06
63343;BME280;49465;57.664;39.686;2023-07-29T03:16:52;99430.75;;;21.02;57.15
63343;BME280;49465;57.664;39.686;2023-07-29T03:19:27;99421.44;;;21.12;56.83
63343;BME280;49465;57.664;39.686;2023-07-29T03:22:07;99406.28;;;21.13;56.97
63343;BME280;49465;57.664;39.686;2023-07-29T03:24:47;99396.38;;;21.07;57.23
63343;BME280;49465;57.664;39.686;2023-07-29T03:27:16;99394.72;;;21.06;57.65
63343;BME280;49465;57.664;39.686;2023-07-29T03:29:51;99402.44;;;21.01;57.61
63343;BME280;49465;57.664;39.686;2023-07-29T03:32:23;99414.78;;;21.02;57.66
63343;BME280;49465;57.664;39.686;2023-07-29T03:34:52;99413.19;;;21.07;57.13
63343;BME280;49465;57.664;39.686;2023-07-29T03:37:29;99401.16;;;21.11;56.98
63343;BME280;49465;57.664;39.686;2023-07-29T03:40:02;99387.94;;;21.03;57.41
63343;BME280;49465;57.664;39.686;2023-07-29T03:42:36;99389.13;;;21.01;58.26
63343;BME280;49465;57.664;39.686;2023-07-29T03:45:08;99395.84;;;20.97;57.80
63343;BME280;49465;57.664;39.686;2023-07-29T03:47:41;99393.81;;;20.99;57.89
63343;BME280;49465;57.664;39.686;2023-07-29T03:50:10;99371.63;;;20.91;58.08
63343;BME280;49465;57.664;39.686;2023-07-29T03:52:44;99364.28;;;20.93;58.20
63343;BME280;49465;57.664;39.686;2023-07-29T03:55:17;99352.41;;;20.96;57.96
63343;BME280;49465;57.664;39.686;2023-07-29T03:57:54;99342.84;;;21.02;57.95
63343;BME280;49465;57.664;39.686;2023-07-29T04:00:24;99332.03;;;20.88;58.07
63343;BME280;49465;57.664;39.686;2023-07-29T04:02:55;99350.56;;;20.97;58.16
63343;BME280;49465;57.664;39.686;2023-07-29T04:05:30;99356.03;;;21.10;57.49
63343;BME280;49465;57.664;39.686;2023-07-29T04:08:02;99352.22;;;20.98;58.24
63343;BME280;49465;57.664;39.686;2023-07-29T04:10:32;99339.66;;;21.13;58.00
63343;BME280;49465;57.664;39.686;2023-07-29T04:13:04;99332.53;;;20.99;58.29
63343;BME280;49465;57.664;39.686;2023-07-29T04:15:31;99328.47;;;21.03;58.02
63343;BME280;49465;57.664;39.686;2023-07-29T04:17:57;99322.38;;;21.09;58.02
63343;BME280;49465;57.664;39.686;2023-07-29T04:20:26;99325.75;;;21.18;57.79
63343;BME280;49465;57.664;39.686;2023-07-29T04:22:55;99335.47;;;21.25;57.71
63343;BME280;49465;57.664;39.686;2023-07-29T04:25:27;99341.81;;;21.24;57.58
63343;BME280;49465;57.664;39.686;2023-07-29T04:27:59;99344.53;;;21.31;57.58
63343;BME280;49465;57.664;39.686;2023-07-29T04:30:37;99353.22;;;21.61;56.91
63343;BME280;49465;57.664;39.686;2023-07-29T04:33:11;99361.56;;;21.51;57.31
63343;BME280;49465;57.664;39.686;2023-07-29T04:35:45;99372.03;;;21.53;57.50
63343;BME280;49465;57.664;39.686;2023-07-29T04:38:16;99388.66;;;21.55;57.05
63343;BME280;49465;57.664;39.686;2023-07-29T04:40:48;99393.50;;;21.66;56.97
63343;BME280;49465;57.664;39.686;2023-07-29T04:43:21;99382.44;;;21.69;56.65
63343;BME280;49465;57.664;39.686;2023-07-29T04:45:53;99370.13;;;21.68;56.73
63343;BME280;49465;57.664;39.686;2023-07-29T04:48:24;99372.91;;;21.82;56.53
63343;BME280;49465;57.664;39.686;2023-07-29T04:50:56;99359.41;;;21.90;56.26
63343;BME280;49465;57.664;39.686;2023-07-29T04:53:29;99347.84;;;21.83;56.31
63343;BME280;49465;57.664;39.686;2023-07-29T04:56:08;99346.88;;;21.90;56.16
63343;BME280;49465;57.664;39.686;2023-07-29T04:58:39;99356.47;;;21.85;55.97
63343;BME280;49465;57.664;39.686;2023-07-29T05:01:11;99338.06;;;21.90;56.14
63343;BME280;49465;57.664;39.686;2023-07-29T05:03:46;99313.16;;;21.83;56.01
63343;BME280;49465;57.664;39.686;2023-07-29T05:06:18;99329.16;;;21.83;56.10
63343;BME280;49465;57.664;39.686;2023-07-29T05:08:50;99342.91;;;21.80;56.29
63343;BME280;49465;57.664;39.686;2023-07-29T05:11:33;99348.47;;;22.13;55.18
63343;BME280;49465;57.664;39.686;2023-07-29T05:14:02;99344.66;;;21.94;55.64
63343;BME280;49465;57.664;39.686;2023-07-29T05:16:33;99351.25;;;21.98;56.14
63343;BME280;49465;57.664;39.686;2023-07-29T05:19:02;99365.94;;;21.87;55.81
63343;BME280;49465;57.664;39.686;2023-07-29T05:21:32;99373.31;;;21.85;55.82
63343;BME280;49465;57.664;39.686;2023-07-29T05:24:01;99387.28;;;21.87;55.46
63343;BME280;49465;57.664;39.686;2023-07-29T05:26:36;99413.25;;;22.00;55.52
63343;BME280;49465;57.664;39.686;2023-07-29T05:29:08;99440.94;;;21.99;55.86
63343;BME280;49465;57.664;39.686;2023-07-29T05:31:46;99471.59;;;22.03;55.63
63343;BME280;49465;57.664;39.686;2023-07-29T05:34:22;99493.94;;;22.02;55.90
63343;BME280;49465;57.664;39.686;2023-07-29T05:36:54;99514.16;;;21.90;56.08
63343;BME280;49465;57.664;39.686;2023-07-29T05:39:29;99519.50;;;21.90;55.99
63343;BME280;49465;57.664;39.686;2023-07-29T05:42:03;99531.25;;;21.74;56.08
63343;BME280;49465;57.664;39.686;2023-07-29T05:44:40;99549.81;;;21.82;56.71
63343;BME280;49465;57.664;39.686;2023-07-29T05:47:15;99560.66;;;21.81;56.66
63343;BME280;49465;57.664;39.686;2023-07-29T05:49:53;99553.00;;;21.78;56.67
63343;BME280;49465;57.664;39.686;2023-07-29T05:52:32;99502.72;;;21.75;56.47
63343;BME280;49465;57.664;39.686;2023-07-29T05:55:06;99413.31;;;21.57;56.34
63343;BME280;49465;57.664;39.686;2023-07-29T05:57:40;99363.25;;;21.59;56.56
63343;BME280;49465;57.664;39.686;2023-07-29T06:00:15;99402.69;;;21.64;56.68
63343;BME280;49465;57.664;39.686;2023-07-29T06:02:49;99385.75;;;21.50;56.83
63343;BME280;49465;57.664;39.686;2023-07-29T06:05:27;99395.41;;;21.51;56.91
63343;BME280;49465;57.664;39.686;2023-07-29T06:08:01;99435.31;;;21.44;57.28
63343;BME280;49465;57.664;39.686;2023-07-29T06:10:38;99452.03;;;21.53;57.10
63343;BME280;49465;57.664;39.686;2023-07-29T06:13:14;99435.84;;;21.55;56.76
63343;BME280;49465;57.664;39.686;2023-07-29T06:15:51;99430.06;;;21.51;58.12
63343;BME280;49465;57.664;39.686;2023-07-29T06:18:25;99417.53;;;21.30;57.93
63343;BME280;49465;57.664;39.686;2023-07-29T06:21:00;99408.94;;;21.49;57.31
63343;BME280;49465;57.664;39.686;2023-07-29T06:23:35;99385.84;;;21.42;58.01
63343;BME280;49465;57.664;39.686;2023-07-29T06:26:09;99384.22;;;21.41;58.30
63343;BME280;49465;57.664;39.686;2023-07-29T06:28:43;99385.31;;;21.46;57.76
63343;BME280;49465;57.664;39.686;2023-07-29T06:31:18;99381.03;;;21.30;58.01
63343;BME280;49465;57.664;39.686;2023-07-29T06:33:58;99379.72;;;21.63;57.43
63343;BME280;49465;57.664;39.686;2023-07-29T06:36:30;99382.84;;;21.45;57.74
63343;BME280;49465;57.664;39.686;2023-07-29T06:39:09;99381.78;;;21.67;57.59
63343;BME280;49465;57.664;39.686;2023-07-29T06:41:46;99378.91;;;21.62;57.90
63343;BME280;49465;57.664;39.686;2023-07-29T06:44:24;99380.03;;;21.53;58.05
63343;BME280;49465;57.664;39.686;2023-07-29T06:47:00;99368.53;;;21.74;57.34
63343;BME280;49465;57.664;39.686;2023-07-29T06:49:32;99354.25;;;21.60;57.67
63343;BME280;49465;57.664;39.686;2023-07-29T06:52:03;99362.34;;;21.73;57.51
63343;BME280;49465;57.664;39.686;2023-07-29T06:54:38;99365.44;;;21.77;57.62
63343;BME280;49465;57.664;39.686;2023-07-29T06:57:15;99353.19;;;21.83;57.20
63343;BME280;49465;57.664;39.686;2023-07-29T06:59:48;99346.97;;;21.76;57.76
63343;BME280;49465;57.664;39.686;2023-07-29T07:02:22;99330.44;;;21.59;57.63
63343;BME280;49465;57.664;39.686;2023-07-29T07:04:57;99329.41;;;21.60;57.90
63343;BME280;49465;57.664;39.686;2023-07-29T07:07:32;99329.63;;;21.58;57.67
63343;BME280;49465;57.664;39.686;2023-07-29T07:10:04;99356.78;;;21.68;57.56
63343;BME280;49465;57.664;39.686;2023-07-29T07:12:43;99360.72;;;21.72;57.43
63343;BME280;49465;57.664;39.686;2023-07-29T07:15:20;99367.69;;;21.73;57.33
63343;BME280;49465;57.664;39.686;2023-07-29T07:17:52;99367.38;;;21.62;57.58
63343;BME280;49465;57.664;39.686;2023-07-29T07:20:33;99367.78;;;21.59;57.71
63343;BME280;49465;57.664;39.686;2023-07-29T07:23:06;99373.94;;;21.59;57.66
63343;BME280;49465;57.664;39.686;2023-07-29T07:25:36;99361.34;;;21.46;57.74
63343;BME280;49465;57.664;39.686;2023-07-29T07:28:13;99305.00;;;21.56;57.53
63343;BME280;49465;57.664;39.686;2023-07-29T07:30:43;99301.03;;;21.30;58.37
63343;BME280;49465;57.664;39.686;2023-07-29T07:33:12;99325.03;;;21.30;58.59
63343;BME280;49465;57.664;39.686;2023-07-29T07:35:38;99316.63;;;21.27;58.52
63343;BME280;49465;57.664;39.686;2023-07-29T07:38:05;99311.41;;;21.19;58.80
63343;BME280;49465;57.664;39.686;2023-07-29T07:40:42;99331.91;;;21.40;58.40
63343;BME280;49465;57.664;39.686;2023-07-29T07:43:08;99358.09;;;21.14;58.86
63343;BME280;49465;57.664;39.686;2023-07-29T07:45:40;99360.91;;;21.28;58.36
63343;BME280;49465;57.664;39.686;2023-07-29T07:48:09;99332.84;;;21.10;58.59
63343;BME280;49465;57.664;39.686;2023-07-29T07:50:40;99312.50;;;21.03;58.99
63343;BME280;49465;57.664;39.686;2023-07-29T07:53:09;99339.41;;;21.08;59.40
63343;BME280;49465;57.664;39.686;2023-07-29T07:55:41;99358.81;;;21.02;59.00
63343;BME280;49465;57.664;39.686;2023-07-29T07:58:11;99363.69;;;20.98;59.08
63343;BME280;49465;57.664;39.686;2023-07-29T08:00:41;99364.63;;;20.90;59.46
63343;BME280;49465;57.664;39.686;2023-07-29T08:03:13;99378.22;;;20.96;59.18
63343;BME280;49465;57.664;39.686;2023-07-29T08:05:42;99405.16;;;20.86;59.66
63343;BME280;49465;57.664;39.686;2023-07-29T08:08:08;99407.63;;;20.87;59.56
63343;BME280;49465;57.664;39.686;2023-07-29T08:10:38;99374.28;;;20.91;59.36
63343;BME280;49465;57.664;39.686;2023-07-29T08:13:06;99335.84;;;21.01;58.82
63343;BME280;49465;57.664;39.686;2023-07-29T08:15:33;99306.78;;;20.84;59.10
63343;BME280;49465;57.664;39.686;2023-07-29T08:17:59;99282.66;;;20.71;59.55
63343;BME280;49465;57.664;39.686;2023-07-29T08:20:30;99264.59;;;20.51;60.48
63343;BME280;49465;57.664;39.686;2023-07-29T08:22:57;99253.78;;;20.53;60.44
63343;BME280;49465;57.664;39.686;2023-07-29T08:25:23;99262.97;;;20.50;60.74
63343;BME280;49465;57.664;39.686;2023-07-29T08:27:50;99255.63;;;20.52;60.70
63343;BME280;49465;57.664;39.686;2023-07-29T08:30:16;99255.22;;;20.55;60.71
63343;BME280;49465;57.664;39.686;2023-07-29T08:32:48;99272.50;;;20.60;60.69
63343;BME280;49465;57.664;39.686;2023-07-29T08:35:23;99258.53;;;20.58;60.57
63343;BME280;49465;57.664;39.686;2023-07-29T08:37:49;99266.00;;;20.62;60.42
63343;BME280;49465;57.664;39.686;2023-07-29T08:40:22;99275.44;;;20.65;60.40
63343;BME280;49465;57.664;39.686;2023-07-29T08:42:54;99283.31;;;20.73;60.03
63343;BME280;49465;57.664;39.686;2023-07-29T08:45:26;99274.03;;;20.69;60.56
63343;BME280;49465;57.664;39.686;2023-07-29T08:47:57;99248.31;;;20.76;60.06
63343;BME280;49465;57.664;39.686;2023-07-29T08:50:25;99235.84;;;20.62;60.59
63343;BME280;49465;57.664;39.686;2023-07-29T08:52:52;99245.88;;;20.60;60.34
63343;BME280;49465;57.664;39.686;2023-07-29T08:55:22;99253.94;;;20.51;60.71
63343;BME280;49465;57.664;39.686;2023-07-29T08:57:54;99265.50;;;20.59;60.39
63343;BME280;49465;57.664;39.686;2023-07-29T09:00:28;99277.28;;;20.64;60.87
63343;BME280;49465;57.664;39.686;2023-07-29T09:02:55;99292.41;;;20.64;60.29
63343;BME280;49465;57.664;39.686;2023-07-29T09:05:27;99279.81;;;20.58;60.61
63343;BME280;49465;57.664;39.686;2023-07-29T09:07:54;99253.09;;;20.66;60.28
63343;BME280;49465;57.664;39.686;2023-07-29T09:10:27;99279.63;;;20.74;60.04
63343;BME280;49465;57.664;39.686;2023-07-29T09:12:53;99304.34;;;20.53;60.57
63343;BME280;49465;57.664;39.686;2023-07-29T09:15:30;99304.59;;;20.73;60.17
63343;BME280;49465;57.664;39.686;2023-07-29T09:17:57;99274.25;;;20.52;60.51
63343;BME280;49465;57.664;39.686;2023-07-29T09:20:29;99245.59;;;20.54;61.11
63343;BME280;49465;57.664;39.686;2023-07-29T09:22:59;99263.69;;;20.44;61.11
63343;BME280;49465;57.664;39.686;2023-07-29T09:25:31;99275.72;;;20.55;61.12
63343;BME280;49465;57.664;39.686;2023-07-29T09:28:07;99255.34;;;20.62;60.44
63343;BME280;49465;57.664;39.686;2023-07-29T09:30:41;99232.94;;;20.57;60.46
63343;BME280;49465;57.664;39.686;2023-07-29T09:33:09;99226.66;;;20.28;61.70
63343;BME280;49465;57.664;39.686;2023-07-29T09:35:38;99230.41;;;20.33;61.68
63343;BME280;49465;57.664;39.686;2023-07-29T09:38:06;99246.22;;;20.35;61.60
63343;BME280;49465;57.664;39.686;2023-07-29T09:40:42;99254.22;;;20.57;60.60
63343;BME280;49465;57.664;39.686;2023-07-29T09:43:19;99255.22;;;20.55;60.79
63343;BME280;49465;57.664;39.686;2023-07-29T09:45:53;99246.44;;;20.40;61.06
63343;BME280;49465;57.664;39.686;2023-07-29T09:48:23;99268.78;;;20.39;61.36
63343;BME280;49465;57.664;39.686;2023-07-29T09:50:57;99289.31;;;20.45;61.03
63343;BME280;49465;57.664;39.686;2023-07-29T09:53:27;99285.38;;;20.41;61.28
63343;BME280;49465;57.664;39.686;2023-07-29T09:56:01;99294.16;;;20.57;60.72
63343;BME280;49465;57.664;39.686;2023-07-29T09:58:31;99293.31;;;20.56;60.98
63343;BME280;49465;57.664;39.686;2023-07-29T10:01:03;99299.84;;;20.53;60.84
63343;BME280;49465;57.664;39.686;2023-07-29T10:03:33;99279.78;;;20.36;61.69
63343;BME280;49465;57.664;39.686;2023-07-29T10:06:06;99286.66;;;20.45;61.46
63343;BME280;49465;57.664;39.686;2023-07-29T10:08:35;99280.06;;;20.41;60.92
63343;BME280;49465;57.664;39.686;2023-07-29T10:11:11;99281.50;;;20.59;60.66
63343;BME280;49465;57.664;39.686;2023-07-29T10:13:41;99285.75;;;20.38;60.89
63343;BME280;49465;57.664;39.686;2023-07-29T10:16:13;99280.72;;;20.28;61.48
63343;BME280;49465;57.664;39.686;2023-07-29T10:18:43;99286.13;;;20.35;61.43
63343;BME280;49465;57.664;39.686;2023-07-29T10:21:10;99288.16;;;20.33;61.46
63343;BME280;49465;57.664;39.686;2023-07-29T10:23:46;99286.81;;;20.59;60.48
63343;BME280;49465;57.664;39.686;2023-07-29T10:26:17;99290.13;;;20.46;61.07
63343;BME280;49465;57.664;39.686;2023-07-29T10:28:52;99295.81;;;20.58;60.74
63343;BME280;49465;57.664;39.686;2023-07-29T10:31:30;99296.22;;;20.40;60.89
63343;BME280;49465;57.664;39.686;2023-07-29T10:33:59;99298.56;;;20.49;60.65
63343;BME280;49465;57.664;39.686;2023-07-29T10:36:35;99315.09;;;20.60;60.63
63343;BME280;49465;57.664;39.686;2023-07-29T10:39:07;99318.88;;;20.65;60.17
63343;BME280;49465;57.664;39.686;2023-07-29T10:42:02;99324.94;;;20.96;59.06
63343;BME280;49465;57.664;39.686;2023-07-29T10:44:46;99319.34;;;20.90;59.15
63343;BME280;49465;57.664;39.686;2023-07-29T10:49:48;99330.72;;;20.63;59.94
63343;BME280;49465;57.664;39.686;2023-07-29T10:52:16;99329.78;;;20.55;59.86
63343;BME280;49465;57.664;39.686;2023-07-29T10:54:49;99340.00;;;20.67;59.67
63343;BME280;49465;57.664;39.686;2023-07-29T10:57:38;99347.53;;;21.00;60.00
63343;BME280;49465;57.664;39.686;2023-07-29T11:00:13;99352.94;;;20.70;59.91
63343;BME280;49465;57.664;39.686;2023-07-29T11:03:01;99358.41;;;20.83;60.41
63343;BME280;49465;57.664;39.686;2023-07-29T11:05:50;99360.09;;;21.06;59.35
63343;BME280;49465;57.664;39.686;2023-07-29T11:08:30;99357.28;;;20.92;59.58
63343;BME280;49465;57.664;39.686;2023-07-29T11:11:07;99352.97;;;20.91;59.38
63343;BME280;49465;57.664;39.686;2023-07-29T11:13:40;99353.38;;;20.73;60.55
63343;BME280;49465;57.664;39.686;2023-07-29T11:16:09;99351.22;;;20.62;60.11
63343;BME280;49465;57.664;39.686;2023-07-29T11:18:39;99344.75;;;20.57;60.19
63343;BME280;49465;57.664;39.686;2023-07-29T11:21:08;99346.41;;;20.58;60.28
63343;BME280;49465;57.664;39.686;2023-07-29T11:23:36;99351.56;;;20.59;60.34
63343;BME280;49465;57.664;39.686;2023-07-29T11:26:04;99349.81;;;20.51;60.09
63343;BME280;49465;57.664;39.686;2023-07-29T11:28:31;99345.75;;;20.55;59.82
63343;BME280;49465;57.664;39.686;2023-07-29T11:31:03;99364.72;;;20.61;59.54
63343;BME280;49465;57.664;39.686;2023-07-29T11:33:32;99362.38;;;20.58;59.62
63343;BME280;49465;57.664;39.686;2023-07-29T11:35:59;99368.38;;;20.60;59.49
63343;BME280;49465;57.664;39.686;2023-07-29T11:38:28;99369.72;;;20.55;59.73
63343;BME280;49465;57.664;39.686;2023-07-29T11:40:59;99377.34;;;20.59;60.00
63343;BME280;49465;57.664;39.686;2023-07-29T11:43:29;99373.78;;;20.66;59.95
63343;BME280;49465;57.664;39.686;2023-07-29T11:45:55;99376.44;;;20.51;59.61
63343;BME280;49465;57.664;39.686;2023-07-29T11:48:34;99373.97;;;20.65;59.56
63343;BME280;49465;57.664;39.686;2023-07-29T11:51:01;99376.34;;;20.60;59.61
63343;BME280;49465;57.664;39.686;2023-07-29T11:53:29;99363.75;;;20.53;59.90
63343;BME280;49465;57.664;39.686;2023-07-29T11:55:59;99362.38;;;20.58;59.79
63343;BME280;49465;57.664;39.686;2023-07-29T11:58:30;99364.59;;;20.69;60.25
63343;BME280;49465;57.664;39.686;2023-07-29T12:01:00;99364.03;;;20.59;59.78
63343;BME280;49465;57.664;39.686;2023-07-29T12:03:32;99372.50;;;20.62;60.16
63343;BME280;49465;57.664;39.686;2023-07-29T12:05:59;99377.28;;;20.67;59.77
63343;BME280;49465;57.664;39.686;2023-07-29T12:08:26;99375.53;;;20.74;60.13
63343;BME280;49465;57.664;39.686;2023-07-29T12:10:53;99387.00;;;20.74;60.37
63343;BME280;49465;57.664;39.686;2023-07-29T12:13:24;99391.34;;;20.97;59.88
63343;BME280;49465;57.664;39.686;2023-07-29T12:16:01;99393.59;;;21.15;60.69
63343;BME280;49465;57.664;39.686;2023-07-29T12:18:37;99390.31;;;21.13;60.14
63343;BME280;49465;57.664;39.686;2023-07-29T12:21:04;99388.88;;;20.96;60.39
63343;BME280;49465;57.664;39.686;2023-07-29T12:23:36;99386.47;;;21.01;60.00
63343;BME280;49465;57.664;39.686;2023-07-29T12:26:05;99377.06;;;21.05;60.34
63343;BME280;49465;57.664;39.686;2023-07-29T12:28:34;99367.50;;;21.10;60.94
63343;BME280;49465;57.664;39.686;2023-07-29T12:31:07;99372.66;;;21.33;60.40
63343;BME280;49465;57.664;39.686;2023-07-29T12:33:37;99369.72;;;21.28;60.49
63343;BME280;49465;57.664;39.686;2023-07-29T12:36:07;99369.09;;;21.26;59.96
63343;BME280;49465;57.664;39.686;2023-07-29T12:38:39;99356.03;;;21.31;60.09
63343;BME280;49465;57.664;39.686;2023-07-29T12:41:11;99355.25;;;21.38;59.59
63343;BME280;49465;57.664;39.686;2023-07-29T12:43:43;99346.53;;;21.44;59.63
63343;BME280;49465;57.664;39.686;2023-07-29T12:46:13;99338.81;;;21.34;59.54
63343;BME280;49465;57.664;39.686;2023-07-29T12:48:39;99330.53;;;21.44;59.66
63343;BME280;49465;57.664;39.686;2023-07-29T12:51:09;99324.03;;;21.53;58.93
63343;BME280;49465;57.664;39.686;2023-07-29T12:53:38;99329.53;;;21.45;59.28
63343;BME280;49465;57.664;39.686;2023-07-29T12:56:11;99324.41;;;21.50;59.34
63343;BME280;49465;57.664;39.686;2023-07-29T12:58:38;99322.16;;;21.47;58.81
63343;BME280;49465;57.664;39.686;2023-07-29T13:01:07;99329.03;;;21.41;58.76
63343;BME280;49465;57.664;39.686;2023-07-29T13:03:38;99334.75;;;21.60;58.57
63343;BME280;49465;57.664;39.686;2023-07-29T13:06:07;99341.75;;;21.61;58.87
63343;BME280;49465;57.664;39.686;2023-07-29T13:08:39;99335.28;;;21.48;58.51
63343;BME280;49465;57.664;39.686;2023-07-29T13:11:13;99347.13;;;21.67;58.14
63343;BME280;49465;57.664;39.686;2023-07-29T13:13:40;99346.78;;;21.49;58.72
63343;BME280;49465;57.664;39.686;2023-07-29T13:16:12;99348.53;;;21.63;58.98
63343;BME280;49465;57.664;39.686;2023-07-29T13:18:47;99349.69;;;21.82;58.32
63343;BME280;49465;57.664;39.686;2023-07-29T13:21:19;99351.00;;;21.93;58.11
63343;BME280;49465;57.664;39.686;2023-07-29T13:23:56;99364.34;;;21.93;57.94